sensor_id;sensor_type;location;lat;lon;timestamp;temperature;humidity
7694;DHT22;3889;48.162;11.510;2022-10-31T00:01:26;10.20;99.90
7694;DHT22;3889;48.162;11.510;2022-10-31T00:03:55;10.30;99.90
7694;DHT22;3889;48.162;11.510;2022-10-31T00:06:24;10.30;99.90
7694;DHT22;3889;48.162;11.510;2022-10-31T00:08:53;10.20;99.90
7694;DHT22;3889;48.162;11.510;2022-10-31T00:11:21;10.20;99.90
7694;DHT22;3889;48.162;11.510;2022-10-31T00:13:49;10.20;99.90
7694;DHT22;3889;48.162;11.510;2022-10-31T00:16:19;10.20;99.90
7694;DHT22;3889;48.162;11.510;2022-10-31T00:18:48;10.20;99.90
7694;DHT22;3889;48.162;11.510;2022-10-31T00:21:16;10.10;99.90
7694;DHT22;3889;48.162;11.510;2022-10-31T00:23:46;10.20;99.90
7694;DHT22;3889;48.162;11.510;2022-10-31T00:26:14;10.20;99.90
7694;DHT22;3889;48.162;11.510;2022-10-31T00:28:42;10.20;99.90
7694;DHT22;3889;48.162;11.510;2022-10-31T00:31:11;10.10;99.90
7694;DHT22;3889;48.162;11.510;2022-10-31T00:33:40;10.20;99.90
7694;DHT22;3889;48.162;11.510;2022-10-31T00:36:12;10.20;99.90
7694;DHT22;3889;48.162;11.510;2022-10-31T00:38:40;10.20;99.90
7694;DHT22;3889;48.162;11.510;2022-10-31T00:41:09;10.20;99.90
7694;DHT22;3889;48.162;11.510;2022-10-31T00:43:37;10.20;99.90
7694;DHT22;3889;48.162;11.510;2022-10-31T00:46:05;10.20;99.90
7694;DHT22;3889;48.162;11.510;2022-10-31T00:48:33;10.10;99.90
7694;DHT22;3889;48.162;11.510;2022-10-31T00:51:01;10.10;99.90
7694;DHT22;3889;48.162;11.510;2022-10-31T00:53:29;10.10;99.90
7694;DHT22;3889;48.162;11.510;2022-10-31T00:55:57;10.10;99.90
7694;DHT22;3889;48.162;11.510;2022-10-31T00:58:26;10.10;99.90
7694;DHT22;3889;48.162;11.510;2022-10-31T01:00:54;10.10;99.90
7694;DHT22;3889;48.162;11.510;2022-10-31T01:03:22;10.20;99.90
7694;DHT22;3889;48.162;11.510;2022-10-31T01:06:01;10.20;99.90
7694;DHT22;3889;48.162;11.510;2022-10-31T01:08:29;10.20;99.90
7694;DHT22;3889;48.162;11.510;2022-10-31T01:11:02;10.20;99.90
7694;DHT22;3889;48.162;11.510;2022-10-31T01:13:33;10.20;99.90
7694;DHT22;3889;48.162;11.510;2022-10-31T01:16:02;10.20;99.90
7694;DHT22;3889;48.162;11.510;2022-10-31T01:18:30;10.20;99.90
7694;DHT22;3889;48.162;11.510;2022-10-31T01:21:00;10.10;99.90
7694;DHT22;3889;48.162;11.510;2022-10-31T01:23:28;10.10;99.90
7694;DHT22;3889;48.162;11.510;2022-10-31T01:26:01;10.10;99.90
7694;DHT22;3889;48.162;11.510;2022-10-31T01:28:28;10.00;99.90
7694;DHT22;3889;48.162;11.510;2022-10-31T01:31:01;10.00;99.90
7694;DHT22;3889;48.162;11.510;2022-10-31T01:33:30;10.00;99.90
7694;DHT22;3889;48.162;11.510;2022-10-31T01:35:57;10.00;99.90
7694;DHT22;3889;48.162;11.510;2022-10-31T01:38:26;10.00;99.90
7694;DHT22;3889;48.162;11.510;2022-10-31T01:40:54;9.90;99.90
7694;DHT22;3889;48.162;11.510;2022-10-31T01:43:22;9.90;99.90
7694;DHT22;3889;48.162;11.510;2022-10-31T01:45:52;10.00;99.90
7694;DHT22;3889;48.162;11.510;2022-10-31T01:48:25;10.00;99.90
7694;DHT22;3889;48.162;11.510;2022-10-31T01:50:54;9.90;99.90
7694;DHT22;3889;48.162;11.510;2022-10-31T01:53:23;9.90;99.90
7694;DHT22;3889;48.162;11.510;2022-10-31T01:55:52;9.90;99.90
7694;DHT22;3889;48.162;11.510;2022-10-31T01:58:23;9.90;99.90
7694;DHT22;3889;48.162;11.510;2022-10-31T02:00:55;9.80;99.90
7694;DHT22;3889;48.162;11.510;2022-10-31T02:03:29;9.80;99.90
7694;DHT22;3889;48.162;11.510;2022-10-31T02:05:57;9.70;99.90
7694;DHT22;3889;48.162;11.510;2022-10-31T02:08:28;9.70;99.90
7694;DHT22;3889;48.162;11.510;2022-10-31T02:10:57;9.80;99.90
7694;DHT22;3889;48.162;11.510;2022-10-31T02:13:26;9.80;99.90
7694;DHT22;3889;48.162;11.510;2022-10-31T02:15:57;9.70;99.90
7694;DHT22;3889;48.162;11.510;2022-10-31T02:18:28;9.70;99.90
7694;DHT22;3889;48.162;11.510;2022-10-31T02:21:02;9.60;99.90
7694;DHT22;3889;48.162;11.510;2022-10-31T02:24:11;9.60;99.90
7694;DHT22;3889;48.162;11.510;2022-10-31T02:27:03;9.70;99.90
7694;DHT22;3889;48.162;11.510;2022-10-31T02:29:53;9.70;99.90
7694;DHT22;3889;48.162;11.510;2022-10-31T02:32:27;9.70;99.90
7694;DHT22;3889;48.162;11.510;2022-10-31T02:35:02;9.80;99.90
7694;DHT22;3889;48.162;11.510;2022-10-31T02:37:37;9.80;99.90
7694;DHT22;3889;48.162;11.510;2022-10-31T02:40:15;9.80;99.90
7694;DHT22;3889;48.162;11.510;2022-10-31T02:42:50;9.80;99.90
7694;DHT22;3889;48.162;11.510;2022-10-31T02:45:27;9.80;99.90
7694;DHT22;3889;48.162;11.510;2022-10-31T02:48:01;9.70;99.90
7694;DHT22;3889;48.162;11.510;2022-10-31T02:50:33;9.70;99.90
7694;DHT22;3889;48.162;11.510;2022-10-31T02:53:02;9.70;99.90
7694;DHT22;3889;48.162;11.510;2022-10-31T02:55:47;9.80;99.90
7694;DHT22;3889;48.162;11.510;2022-10-31T02:58:19;9.80;99.90
7694;DHT22;3889;48.162;11.510;2022-10-31T03:03:45;9.70;99.90
7694;DHT22;3889;48.162;11.510;2022-10-31T03:06:23;9.70;99.90
7694;DHT22;3889;48.162;11.510;2022-10-31T03:08:59;9.70;99.90
7694;DHT22;3889;48.162;11.510;2022-10-31T03:11:32;9.70;99.90
7694;DHT22;3889;48.162;11.510;2022-10-31T03:14:06;9.70;99.90
7694;DHT22;3889;48.162;11.510;2022-10-31T03:16:42;9.70;99.90
7694;DHT22;3889;48.162;11.510;2022-10-31T03:19:15;9.60;99.90
7694;DHT22;3889;48.162;11.510;2022-10-31T03:21:47;9.60;99.90
7694;DHT22;3889;48.162;11.510;2022-10-31T03:24:17;9.60;99.90
7694;DHT22;3889;48.162;11.510;2022-10-31T03:26:49;9.50;99.90
7694;DHT22;3889;48.162;11.510;2022-10-31T03:29:21;9.60;99.90
7694;DHT22;3889;48.162;11.510;2022-10-31T03:31:53;9.50;99.90
7694;DHT22;3889;48.162;11.510;2022-10-31T03:34:24;9.50;99.90
7694;DHT22;3889;48.162;11.510;2022-10-31T03:36:55;9.50;99.90
7694;DHT22;3889;48.162;11.510;2022-10-31T03:39:24;9.50;99.90
7694;DHT22;3889;48.162;11.510;2022-10-31T03:41:54;9.50;99.90
7694;DHT22;3889;48.162;11.510;2022-10-31T03:44:23;9.40;99.90
7694;DHT22;3889;48.162;11.510;2022-10-31T03:46:52;9.30;99.90
7694;DHT22;3889;48.162;11.510;2022-10-31T03:49:20;9.40;99.90
7694;DHT22;3889;48.162;11.510;2022-10-31T03:51:54;9.40;99.90
7694;DHT22;3889;48.162;11.510;2022-10-31T03:54:27;9.40;99.90
7694;DHT22;3889;48.162;11.510;2022-10-31T03:56:58;9.30;99.90
7694;DHT22;3889;48.162;11.510;2022-10-31T03:59:31;9.30;99.90
7694;DHT22;3889;48.162;11.510;2022-10-31T04:02:03;9.20;99.90
7694;DHT22;3889;48.162;11.510;2022-10-31T04:04:34;9.30;99.90
7694;DHT22;3889;48.162;11.510;2022-10-31T04:07:05;9.30;99.90
7694;DHT22;3889;48.162;11.510;2022-10-31T04:09:36;9.30;99.90
7694;DHT22;3889;48.162;11.510;2022-10-31T04:12:06;9.20;99.90
7694;DHT22;3889;48.162;11.510;2022-10-31T04:14:38;9.20;99.90
7694;DHT22;3889;48.162;11.510;2022-10-31T04:17:10;9.20;99.90
7694;DHT22;3889;48.162;11.510;2022-10-31T04:19:39;9.20;99.90
7694;DHT22;3889;48.162;11.510;2022-10-31T04:22:08;9.20;99.90
7694;DHT22;3889;48.162;11.510;2022-10-31T04:24:37;9.20;99.90
7694;DHT22;3889;48.162;11.510;2022-10-31T04:27:06;9.10;99.90
7694;DHT22;3889;48.162;11.510;2022-10-31T04:29:34;9.10;99.90
7694;DHT22;3889;48.162;11.510;2022-10-31T04:32:02;9.10;99.90
7694;DHT22;3889;48.162;11.510;2022-10-31T04:34:30;9.20;99.90
7694;DHT22;3889;48.162;11.510;2022-10-31T04:36:57;9.10;99.90
7694;DHT22;3889;48.162;11.510;2022-10-31T04:39:27;9.20;99.90
7694;DHT22;3889;48.162;11.510;2022-10-31T04:41:54;9.10;99.90
7694;DHT22;3889;48.162;11.510;2022-10-31T04:44:22;9.00;99.90
7694;DHT22;3889;48.162;11.510;2022-10-31T04:46:50;9.10;99.90
7694;DHT22;3889;48.162;11.510;2022-10-31T04:49:18;9.10;99.90
7694;DHT22;3889;48.162;11.510;2022-10-31T04:51:45;9.10;99.90
7694;DHT22;3889;48.162;11.510;2022-10-31T04:54:13;9.10;99.90
7694;DHT22;3889;48.162;11.510;2022-10-31T04:56:42;9.00;99.90
7694;DHT22;3889;48.162;11.510;2022-10-31T04:59:10;9.00;99.90
7694;DHT22;3889;48.162;11.510;2022-10-31T05:01:38;9.00;99.90
7694;DHT22;3889;48.162;11.510;2022-10-31T05:04:06;9.00;99.90
7694;DHT22;3889;48.162;11.510;2022-10-31T05:06:34;9.00;99.90
7694;DHT22;3889;48.162;11.510;2022-10-31T05:09:02;9.00;99.90
7694;DHT22;3889;48.162;11.510;2022-10-31T05:11:30;9.00;99.90
7694;DHT22;3889;48.162;11.510;2022-10-31T05:13:59;8.90;99.90
7694;DHT22;3889;48.162;11.510;2022-10-31T05:16:27;9.00;99.90
7694;DHT22;3889;48.162;11.510;2022-10-31T05:18:55;9.10;99.90
7694;DHT22;3889;48.162;11.510;2022-10-31T05:21:23;9.00;99.90
7694;DHT22;3889;48.162;11.510;2022-10-31T05:23:51;9.00;99.90
7694;DHT22;3889;48.162;11.510;2022-10-31T05:26:19;9.00;99.90
7694;DHT22;3889;48.162;11.510;2022-10-31T05:28:46;9.00;99.90
7694;DHT22;3889;48.162;11.510;2022-10-31T05:31:15;8.90;99.90
7694;DHT22;3889;48.162;11.510;2022-10-31T05:33:43;8.90;99.90
7694;DHT22;3889;48.162;11.510;2022-10-31T05:36:11;8.90;99.90
7694;DHT22;3889;48.162;11.510;2022-10-31T05:38:39;8.80;99.90
7694;DHT22;3889;48.162;11.510;2022-10-31T05:41:06;8.70;99.90
7694;DHT22;3889;48.162;11.510;2022-10-31T05:43:35;8.70;99.90
7694;DHT22;3889;48.162;11.510;2022-10-31T05:46:03;8.70;99.90
7694;DHT22;3889;48.162;11.510;2022-10-31T05:48:33;8.80;99.90
7694;DHT22;3889;48.162;11.510;2022-10-31T05:51:00;8.80;99.90
7694;DHT22;3889;48.162;11.510;2022-10-31T05:53:28;8.80;99.90
7694;DHT22;3889;48.162;11.510;2022-10-31T05:55:56;8.80;99.90
7694;DHT22;3889;48.162;11.510;2022-10-31T05:58:24;8.80;99.90
7694;DHT22;3889;48.162;11.510;2022-10-31T06:00:53;8.80;99.90
7694;DHT22;3889;48.162;11.510;2022-10-31T06:03:20;8.90;99.90
7694;DHT22;3889;48.162;11.510;2022-10-31T06:05:50;8.90;99.90
7694;DHT22;3889;48.162;11.510;2022-10-31T06:08:21;8.90;99.90
7694;DHT22;3889;48.162;11.510;2022-10-31T06:10:48;8.90;99.90
7694;DHT22;3889;48.162;11.510;2022-10-31T06:13:16;8.90;99.90
7694;DHT22;3889;48.162;11.510;2022-10-31T06:15:44;8.90;99.90
7694;DHT22;3889;48.162;11.510;2022-10-31T06:18:12;8.80;99.90
7694;DHT22;3889;48.162;11.510;2022-10-31T06:20:39;8.80;99.90
7694;DHT22;3889;48.162;11.510;2022-10-31T06:23:09;8.80;99.90
7694;DHT22;3889;48.162;11.510;2022-10-31T06:25:36;8.80;99.90
7694;DHT22;3889;48.162;11.510;2022-10-31T06:28:05;8.90;99.90
7694;DHT22;3889;48.162;11.510;2022-10-31T06:30:33;8.90;99.90
7694;DHT22;3889;48.162;11.510;2022-10-31T06:33:04;9.00;99.90
7694;DHT22;3889;48.162;11.510;2022-10-31T06:35:32;9.00;99.90
7694;DHT22;3889;48.162;11.510;2022-10-31T06:38:00;9.00;99.90
7694;DHT22;3889;48.162;11.510;2022-10-31T06:40:29;9.00;99.90
7694;DHT22;3889;48.162;11.510;2022-10-31T06:42:58;8.90;99.90
7694;DHT22;3889;48.162;11.510;2022-10-31T06:45:26;9.00;99.90
7694;DHT22;3889;48.162;11.510;2022-10-31T06:47:55;9.00;99.90
7694;DHT22;3889;48.162;11.510;2022-10-31T06:50:42;9.00;99.90
7694;DHT22;3889;48.162;11.510;2022-10-31T06:53:10;9.10;99.90
7694;DHT22;3889;48.162;11.510;2022-10-31T06:55:40;9.10;99.90
7694;DHT22;3889;48.162;11.510;2022-10-31T06:58:09;9.10;99.90
7694;DHT22;3889;48.162;11.510;2022-10-31T07:00:37;9.20;99.90
7694;DHT22;3889;48.162;11.510;2022-10-31T07:03:08;9.20;99.90
7694;DHT22;3889;48.162;11.510;2022-10-31T07:05:36;9.30;99.90
7694;DHT22;3889;48.162;11.510;2022-10-31T07:08:06;9.30;99.90
7694;DHT22;3889;48.162;11.510;2022-10-31T07:10:36;9.40;99.90
7694;DHT22;3889;48.162;11.510;2022-10-31T07:13:11;9.40;99.90
7694;DHT22;3889;48.162;11.510;2022-10-31T07:15:41;9.50;99.90
7694;DHT22;3889;48.162;11.510;2022-10-31T07:18:10;9.60;99.90
7694;DHT22;3889;48.162;11.510;2022-10-31T07:20:38;9.60;99.90
7694;DHT22;3889;48.162;11.510;2022-10-31T07:23:07;9.70;99.90
7694;DHT22;3889;48.162;11.510;2022-10-31T07:25:36;9.70;99.90
7694;DHT22;3889;48.162;11.510;2022-10-31T07:28:04;9.80;99.90
7694;DHT22;3889;48.162;11.510;2022-10-31T07:30:33;9.90;99.90
7694;DHT22;3889;48.162;11.510;2022-10-31T07:33:01;10.00;99.90
7694;DHT22;3889;48.162;11.510;2022-10-31T07:35:29;10.00;99.90
7694;DHT22;3889;48.162;11.510;2022-10-31T07:38:05;10.10;99.90
7694;DHT22;3889;48.162;11.510;2022-10-31T07:40:33;10.20;99.90
7694;DHT22;3889;48.162;11.510;2022-10-31T07:43:01;10.30;99.90
7694;DHT22;3889;48.162;11.510;2022-10-31T07:45:29;10.40;99.90
7694;DHT22;3889;48.162;11.510;2022-10-31T07:47:58;10.40;99.90
7694;DHT22;3889;48.162;11.510;2022-10-31T07:50:28;10.60;99.90
7694;DHT22;3889;48.162;11.510;2022-10-31T07:53:00;10.60;99.90
7694;DHT22;3889;48.162;11.510;2022-10-31T07:55:28;10.70;99.90
7694;DHT22;3889;48.162;11.510;2022-10-31T07:57:58;10.80;99.90
7694;DHT22;3889;48.162;11.510;2022-10-31T08:00:26;10.90;99.90
7694;DHT22;3889;48.162;11.510;2022-10-31T08:03:00;11.00;99.90
7694;DHT22;3889;48.162;11.510;2022-10-31T08:05:29;11.10;99.90
7694;DHT22;3889;48.162;11.510;2022-10-31T08:07:57;11.20;99.90
7694;DHT22;3889;48.162;11.510;2022-10-31T08:10:26;11.30;99.90
7694;DHT22;3889;48.162;11.510;2022-10-31T08:12:57;11.50;99.90
7694;DHT22;3889;48.162;11.510;2022-10-31T08:15:26;11.60;99.90
7694;DHT22;3889;48.162;11.510;2022-10-31T08:17:54;11.70;99.90
7694;DHT22;3889;48.162;11.510;2022-10-31T08:20:23;11.80;99.90
7694;DHT22;3889;48.162;11.510;2022-10-31T08:22:55;11.90;99.90
7694;DHT22;3889;48.162;11.510;2022-10-31T08:25:24;12.00;99.90
7694;DHT22;3889;48.162;11.510;2022-10-31T08:27:52;12.10;99.90
7694;DHT22;3889;48.162;11.510;2022-10-31T08:30:22;12.20;99.90
7694;DHT22;3889;48.162;11.510;2022-10-31T08:32:58;12.40;99.90
7694;DHT22;3889;48.162;11.510;2022-10-31T08:35:28;12.50;99.90
7694;DHT22;3889;48.162;11.510;2022-10-31T08:37:56;12.60;99.90
7694;DHT22;3889;48.162;11.510;2022-10-31T08:40:25;12.70;99.90
7694;DHT22;3889;48.162;11.510;2022-10-31T08:42:57;12.90;99.90
7694;DHT22;3889;48.162;11.510;2022-10-31T08:45:26;13.20;99.90
7694;DHT22;3889;48.162;11.510;2022-10-31T08:47:57;13.30;99.90
7694;DHT22;3889;48.162;11.510;2022-10-31T08:50:27;13.40;99.90
7694;DHT22;3889;48.162;11.510;2022-10-31T08:53:00;13.50;99.90
7694;DHT22;3889;48.162;11.510;2022-10-31T08:55:32;13.70;99.90
7694;DHT22;3889;48.162;11.510;2022-10-31T08:58:00;13.80;99.90
7694;DHT22;3889;48.162;11.510;2022-10-31T09:00:29;14.00;99.90
7694;DHT22;3889;48.162;11.510;2022-10-31T09:02:57;14.10;99.90
7694;DHT22;3889;48.162;11.510;2022-10-31T09:05:27;14.10;99.90
7694;DHT22;3889;48.162;11.510;2022-10-31T09:07:55;14.20;99.90
7694;DHT22;3889;48.162;11.510;2022-10-31T09:10:26;14.30;99.90
7694;DHT22;3889;48.162;11.510;2022-10-31T09:12:57;14.40;99.90
7694;DHT22;3889;48.162;11.510;2022-10-31T09:15:26;14.50;99.90
7694;DHT22;3889;48.162;11.510;2022-10-31T09:17:54;14.50;99.90
7694;DHT22;3889;48.162;11.510;2022-10-31T09:20:23;14.60;99.90
7694;DHT22;3889;48.162;11.510;2022-10-31T09:22:57;14.80;99.90
7694;DHT22;3889;48.162;11.510;2022-10-31T09:25:25;14.90;99.90
7694;DHT22;3889;48.162;11.510;2022-10-31T09:27:55;15.10;99.90
7694;DHT22;3889;48.162;11.510;2022-10-31T09:30:24;15.20;99.90
7694;DHT22;3889;48.162;11.510;2022-10-31T09:32:55;15.30;99.90
7694;DHT22;3889;48.162;11.510;2022-10-31T09:35:23;15.50;99.90
7694;DHT22;3889;48.162;11.510;2022-10-31T09:37:56;15.60;99.90
7694;DHT22;3889;48.162;11.510;2022-10-31T09:40:29;15.70;99.90
7694;DHT22;3889;48.162;11.510;2022-10-31T09:43:07;15.60;99.90
7694;DHT22;3889;48.162;11.510;2022-10-31T09:45:39;15.60;99.90
7694;DHT22;3889;48.162;11.510;2022-10-31T09:48:21;15.60;99.90
7694;DHT22;3889;48.162;11.510;2022-10-31T09:50:54;15.60;99.90
7694;DHT22;3889;48.162;11.510;2022-10-31T09:53:29;15.60;99.90
7694;DHT22;3889;48.162;11.510;2022-10-31T09:55:58;15.70;99.90
7694;DHT22;3889;48.162;11.510;2022-10-31T09:58:28;15.70;99.90
7694;DHT22;3889;48.162;11.510;2022-10-31T10:01:03;15.80;99.90
7694;DHT22;3889;48.162;11.510;2022-10-31T10:03:37;15.90;99.90
7694;DHT22;3889;48.162;11.510;2022-10-31T10:06:13;16.00;99.90
7694;DHT22;3889;48.162;11.510;2022-10-31T10:08:43;16.00;99.90
7694;DHT22;3889;48.162;11.510;2022-10-31T10:11:35;16.10;99.90
7694;DHT22;3889;48.162;11.510;2022-10-31T10:14:16;16.20;99.90
7694;DHT22;3889;48.162;11.510;2022-10-31T10:17:00;16.40;99.90
7694;DHT22;3889;48.162;11.510;2022-10-31T10:19:40;16.50;99.90
7694;DHT22;3889;48.162;11.510;2022-10-31T10:22:12;16.60;99.90
7694;DHT22;3889;48.162;11.510;2022-10-31T10:24:55;16.70;99.90
7694;DHT22;3889;48.162;11.510;2022-10-31T10:27:29;16.80;99.90
7694;DHT22;3889;48.162;11.510;2022-10-31T10:30:01;17.00;99.90
7694;DHT22;3889;48.162;11.510;2022-10-31T10:32:31;17.10;99.90
7694;DHT22;3889;48.162;11.510;2022-10-31T10:35:11;17.20;99.90
7694;DHT22;3889;48.162;11.510;2022-10-31T10:37:43;17.30;99.90
7694;DHT22;3889;48.162;11.510;2022-10-31T10:40:16;17.40;99.90
7694;DHT22;3889;48.162;11.510;2022-10-31T10:42:45;17.40;99.90
7694;DHT22;3889;48.162;11.510;2022-10-31T10:45:37;17.40;99.90
7694;DHT22;3889;48.162;11.510;2022-10-31T10:48:30;17.40;99.90
7694;DHT22;3889;48.162;11.510;2022-10-31T10:51:01;17.40;99.90
7694;DHT22;3889;48.162;11.510;2022-10-31T10:53:42;17.50;99.90
7694;DHT22;3889;48.162;11.510;2022-10-31T10:56:38;17.50;99.90
7694;DHT22;3889;48.162;11.510;2022-10-31T10:59:11;17.60;99.90
7694;DHT22;3889;48.162;11.510;2022-10-31T11:01:40;17.60;99.90
7694;DHT22;3889;48.162;11.510;2022-10-31T11:04:29;17.70;99.90
7694;DHT22;3889;48.162;11.510;2022-10-31T11:06:59;17.70;99.90
7694;DHT22;3889;48.162;11.510;2022-10-31T11:09:27;17.80;99.90
7694;DHT22;3889;48.162;11.510;2022-10-31T11:11:58;17.80;99.90
7694;DHT22;3889;48.162;11.510;2022-10-31T11:14:27;17.80;99.90
7694;DHT22;3889;48.162;11.510;2022-10-31T11:17:07;17.90;99.90
7694;DHT22;3889;48.162;11.510;2022-10-31T11:19:36;17.90;99.90
7694;DHT22;3889;48.162;11.510;2022-10-31T11:22:08;17.90;99.90
7694;DHT22;3889;48.162;11.510;2022-10-31T11:24:41;17.90;99.90
7694;DHT22;3889;48.162;11.510;2022-10-31T11:27:19;18.00;99.90
7694;DHT22;3889;48.162;11.510;2022-10-31T11:29:48;18.10;99.90
7694;DHT22;3889;48.162;11.510;2022-10-31T11:32:19;18.10;99.90
7694;DHT22;3889;48.162;11.510;2022-10-31T11:34:51;18.20;99.90
7694;DHT22;3889;48.162;11.510;2022-10-31T11:37:21;18.20;99.90
7694;DHT22;3889;48.162;11.510;2022-10-31T11:39:53;18.30;99.90
7694;DHT22;3889;48.162;11.510;2022-10-31T11:42:26;18.40;99.90
7694;DHT22;3889;48.162;11.510;2022-10-31T11:44:55;18.50;99.90
7694;DHT22;3889;48.162;11.510;2022-10-31T11:47:26;18.50;99.90
7694;DHT22;3889;48.162;11.510;2022-10-31T11:49:56;18.50;99.90
7694;DHT22;3889;48.162;11.510;2022-10-31T11:52:26;18.50;99.90
7694;DHT22;3889;48.162;11.510;2022-10-31T11:54:57;18.60;99.90
7694;DHT22;3889;48.162;11.510;2022-10-31T11:57:28;18.60;99.90
7694;DHT22;3889;48.162;11.510;2022-10-31T12:00:00;18.60;99.90
7694;DHT22;3889;48.162;11.510;2022-10-31T12:02:30;18.70;99.90
7694;DHT22;3889;48.162;11.510;2022-10-31T12:05:02;18.60;99.90
7694;DHT22;3889;48.162;11.510;2022-10-31T12:07:32;18.60;99.90
7694;DHT22;3889;48.162;11.510;2022-10-31T12:10:00;18.60;99.90
7694;DHT22;3889;48.162;11.510;2022-10-31T12:12:49;18.50;99.90
7694;DHT22;3889;48.162;11.510;2022-10-31T12:15:32;18.40;99.90
7694;DHT22;3889;48.162;11.510;2022-10-31T12:18:28;18.40;99.90
7694;DHT22;3889;48.162;11.510;2022-10-31T12:21:13;18.30;99.90
7694;DHT22;3889;48.162;11.510;2022-10-31T12:24:06;18.30;99.90
7694;DHT22;3889;48.162;11.510;2022-10-31T12:26:43;18.30;99.90
7694;DHT22;3889;48.162;11.510;2022-10-31T12:29:26;18.20;99.90
7694;DHT22;3889;48.162;11.510;2022-10-31T12:32:09;18.20;99.90
7694;DHT22;3889;48.162;11.510;2022-10-31T12:35:08;18.20;99.90
7694;DHT22;3889;48.162;11.510;2022-10-31T12:37:51;18.20;99.90
7694;DHT22;3889;48.162;11.510;2022-10-31T12:40:39;18.20;99.90
7694;DHT22;3889;48.162;11.510;2022-10-31T12:43:22;18.20;99.90
7694;DHT22;3889;48.162;11.510;2022-10-31T12:45:57;18.20;99.90
7694;DHT22;3889;48.162;11.510;2022-10-31T12:48:41;18.30;99.90
7694;DHT22;3889;48.162;11.510;2022-10-31T12:51:17;18.30;99.90
7694;DHT22;3889;48.162;11.510;2022-10-31T12:53:57;18.30;99.90
7694;DHT22;3889;48.162;11.510;2022-10-31T12:56:35;18.30;99.90
7694;DHT22;3889;48.162;11.510;2022-10-31T12:59:10;18.30;99.90
7694;DHT22;3889;48.162;11.510;2022-10-31T13:01:47;18.40;99.90
7694;DHT22;3889;48.162;11.510;2022-10-31T13:04:22;18.40;99.90
7694;DHT22;3889;48.162;11.510;2022-10-31T13:06:56;18.50;99.90
7694;DHT22;3889;48.162;11.510;2022-10-31T13:09:28;18.60;99.90
7694;DHT22;3889;48.162;11.510;2022-10-31T13:12:02;18.70;99.90
7694;DHT22;3889;48.162;11.510;2022-10-31T13:14:34;18.70;99.90
7694;DHT22;3889;48.162;11.510;2022-10-31T13:17:05;18.70;99.90
7694;DHT22;3889;48.162;11.510;2022-10-31T13:19:38;18.60;99.90
7694;DHT22;3889;48.162;11.510;2022-10-31T13:22:10;18.50;99.90
7694;DHT22;3889;48.162;11.510;2022-10-31T13:24:43;18.40;99.90
7694;DHT22;3889;48.162;11.510;2022-10-31T13:27:15;18.30;99.90
7694;DHT22;3889;48.162;11.510;2022-10-31T13:29:54;18.20;99.90
7694;DHT22;3889;48.162;11.510;2022-10-31T13:32:27;18.20;99.90
7694;DHT22;3889;48.162;11.510;2022-10-31T13:34:58;18.20;99.90
7694;DHT22;3889;48.162;11.510;2022-10-31T13:37:30;18.10;99.90
7694;DHT22;3889;48.162;11.510;2022-10-31T13:40:12;18.00;99.90
7694;DHT22;3889;48.162;11.510;2022-10-31T13:42:53;18.00;99.90
7694;DHT22;3889;48.162;11.510;2022-10-31T13:45:23;17.90;99.90
7694;DHT22;3889;48.162;11.510;2022-10-31T13:47:58;17.80;99.90
7694;DHT22;3889;48.162;11.510;2022-10-31T13:50:28;17.80;99.90
7694;DHT22;3889;48.162;11.510;2022-10-31T13:53:13;17.80;99.90
7694;DHT22;3889;48.162;11.510;2022-10-31T13:55:43;17.80;99.90
7694;DHT22;3889;48.162;11.510;2022-10-31T13:58:23;17.80;99.90
7694;DHT22;3889;48.162;11.510;2022-10-31T14:01:16;17.80;99.90
7694;DHT22;3889;48.162;11.510;2022-10-31T14:03:55;17.80;99.90
7694;DHT22;3889;48.162;11.510;2022-10-31T14:06:37;17.80;99.90
7694;DHT22;3889;48.162;11.510;2022-10-31T14:09:18;17.80;99.90
7694;DHT22;3889;48.162;11.510;2022-10-31T14:11:47;17.80;99.90
7694;DHT22;3889;48.162;11.510;2022-10-31T14:14:17;17.70;99.90
7694;DHT22;3889;48.162;11.510;2022-10-31T14:16:51;17.80;99.90
7694;DHT22;3889;48.162;11.510;2022-10-31T14:19:23;17.90;99.90
7694;DHT22;3889;48.162;11.510;2022-10-31T14:21:51;17.90;99.90
7694;DHT22;3889;48.162;11.510;2022-10-31T14:24:36;18.00;99.90
7694;DHT22;3889;48.162;11.510;2022-10-31T14:27:34;18.00;99.90
7694;DHT22;3889;48.162;11.510;2022-10-31T14:30:18;17.90;99.90
7694;DHT22;3889;48.162;11.510;2022-10-31T14:32:56;17.90;99.90
7694;DHT22;3889;48.162;11.510;2022-10-31T14:35:36;17.90;99.90
7694;DHT22;3889;48.162;11.510;2022-10-31T14:38:21;17.80;99.90
7694;DHT22;3889;48.162;11.510;2022-10-31T14:41:18;17.80;99.90
7694;DHT22;3889;48.162;11.510;2022-10-31T14:44:16;17.80;99.90
7694;DHT22;3889;48.162;11.510;2022-10-31T14:46:54;17.70;99.90
7694;DHT22;3889;48.162;11.510;2022-10-31T14:49:44;17.60;99.90
7694;DHT22;3889;48.162;11.510;2022-10-31T14:52:17;17.60;99.90
7694;DHT22;3889;48.162;11.510;2022-10-31T14:54:48;17.60;99.90
7694;DHT22;3889;48.162;11.510;2022-10-31T14:57:21;17.60;99.90
7694;DHT22;3889;48.162;11.510;2022-10-31T14:59:53;17.50;99.90
7694;DHT22;3889;48.162;11.510;2022-10-31T15:02:31;17.40;99.90
7694;DHT22;3889;48.162;11.510;2022-10-31T15:05:07;17.40;99.90
7694;DHT22;3889;48.162;11.510;2022-10-31T15:07:47;17.40;99.90
7694;DHT22;3889;48.162;11.510;2022-10-31T15:10:21;17.30;99.90
7694;DHT22;3889;48.162;11.510;2022-10-31T15:12:49;17.20;99.90
7694;DHT22;3889;48.162;11.510;2022-10-31T15:15:20;17.20;99.90
7694;DHT22;3889;48.162;11.510;2022-10-31T15:17:51;17.20;99.90
7694;DHT22;3889;48.162;11.510;2022-10-31T15:20:22;17.10;99.90
7694;DHT22;3889;48.162;11.510;2022-10-31T15:22:54;17.10;99.90
7694;DHT22;3889;48.162;11.510;2022-10-31T15:25:25;17.00;99.90
7694;DHT22;3889;48.162;11.510;2022-10-31T15:27:54;17.00;99.90
7694;DHT22;3889;48.162;11.510;2022-10-31T15:30:24;17.00;99.90
7694;DHT22;3889;48.162;11.510;2022-10-31T15:32:52;16.90;99.90
7694;DHT22;3889;48.162;11.510;2022-10-31T15:35:26;16.80;99.90
7694;DHT22;3889;48.162;11.510;2022-10-31T15:37:57;16.80;99.90
7694;DHT22;3889;48.162;11.510;2022-10-31T15:40:26;16.70;99.90
7694;DHT22;3889;48.162;11.510;2022-10-31T15:42:58;16.70;99.90
7694;DHT22;3889;48.162;11.510;2022-10-31T15:45:28;16.60;99.90
7694;DHT22;3889;48.162;11.510;2022-10-31T15:47:58;16.60;99.90
7694;DHT22;3889;48.162;11.510;2022-10-31T15:50:31;16.50;99.90
7694;DHT22;3889;48.162;11.510;2022-10-31T15:53:01;16.40;99.90
7694;DHT22;3889;48.162;11.510;2022-10-31T15:55:31;16.40;99.90
7694;DHT22;3889;48.162;11.510;2022-10-31T15:58:09;16.30;99.90
7694;DHT22;3889;48.162;11.510;2022-10-31T16:00:38;16.20;99.90
7694;DHT22;3889;48.162;11.510;2022-10-31T16:03:23;16.10;99.90
7694;DHT22;3889;48.162;11.510;2022-10-31T16:05:53;16.00;99.90
7694;DHT22;3889;48.162;11.510;2022-10-31T16:08:26;15.90;99.90
7694;DHT22;3889;48.162;11.510;2022-10-31T16:10:55;15.80;99.90
7694;DHT22;3889;48.162;11.510;2022-10-31T16:13:26;15.70;99.90
7694;DHT22;3889;48.162;11.510;2022-10-31T16:15:56;15.50;99.90
7694;DHT22;3889;48.162;11.510;2022-10-31T16:18:45;15.50;99.90
7694;DHT22;3889;48.162;11.510;2022-10-31T16:21:13;15.40;99.90
7694;DHT22;3889;48.162;11.510;2022-10-31T16:23:47;15.20;99.90
7694;DHT22;3889;48.162;11.510;2022-10-31T16:26:17;15.10;99.90
7694;DHT22;3889;48.162;11.510;2022-10-31T16:28:51;15.10;99.90